Time;durP1;ratioP1;P1;durP2;ratioP2;P2;SDS_P1;SDS_P2;PMS_P1;PMS_P2;Temp;Humidity;BMP_temperature;BMP_pressure;BME280_temperature;BME280_humidity;BME280_pressure;Samples;Min_cycle;Max_cycle;Signal;HPM_P1;HPM_P2
2022/06/08 00:00:03;;;;;;;6.35;3.03;;;12.40;99.90;;;;;;4936957;28;20032;-63
2022/06/08 00:02:32;;;;;;;4.10;3.28;;;12.40;99.90;;;;;;4940438;29;20036;-62
2022/06/08 00:04:58;;;;;;;4.72;2.38;;;12.40;99.90;;;;;;4932799;29;20036;-62
2022/06/08 00:07:24;;;;;;;8.77;2.38;;;12.30;99.90;;;;;;4937767;29;20135;-62
2022/06/08 00:09:49;;;;;;;4.25;2.70;;;12.30;99.90;;;;;;4941451;29;20538;-63
2022/06/08 00:12:15;;;;;;;3.20;2.67;;;12.30;99.90;;;;;;4940500;28;20039;-62
2022/06/08 00:14:42;;;;;;;5.28;3.03;;;12.20;99.90;;;;;;4941147;28;20039;-62
2022/06/08 00:17:07;;;;;;;3.60;3.30;;;12.20;99.90;;;;;;4940042;28;20047;-62
2022/06/08 00:19:33;;;;;;;7.28;3.28;;;12.20;99.90;;;;;;4943563;28;20035;-62
2022/06/08 00:21:59;;;;;;;3.78;3.22;;;12.20;99.90;;;;;;4938809;28;20031;-62
2022/06/08 00:24:25;;;;;;;2.60;2.40;;;12.10;99.90;;;;;;4939661;28;20142;-61
2022/06/08 00:26:51;;;;;;;4.40;2.80;;;12.10;99.90;;;;;;4937446;29;20074;-62
2022/06/08 00:29:17;;;;;;;3.10;2.85;;;12.10;99.90;;;;;;4938101;28;20075;-62
2022/06/08 00:31:43;;;;;;;4.28;3.10;;;12.00;99.90;;;;;;4937529;28;20032;-62
2022/06/08 00:34:09;;;;;;;3.70;3.40;;;12.00;99.90;;;;;;4941434;28;20078;-63
2022/06/08 00:36:34;;;;;;;6.47;3.65;;;12.00;99.90;;;;;;4941518;28;20051;-62
2022/06/08 00:39:00;;;;;;;3.40;3.03;;;11.90;99.90;;;;;;4942951;28;20729;-62
2022/06/08 00:41:45;;;;;;;3.90;3.60;;;11.90;99.90;;;;;;4936485;28;20067;-61
2022/06/08 00:44:17;;;;;;;3.22;2.92;;;11.80;99.90;;;;;;4939887;28;20047;-62
2022/06/08 00:46:45;;;;;;;2.75;2.55;;;11.80;99.90;;;;;;4939932;28;20058;-62
2022/06/08 00:49:22;;;;;;;3.78;3.47;;;11.70;99.90;;;;;;4935906;29;20106;-62
2022/06/08 00:51:49;;;;;;;5.15;3.83;;;11.70;99.90;;;;;;4940233;28;20051;-62
2022/06/08 00:54:43;;;;;;;5.85;3.72;;;11.60;99.90;;;;;;4939594;28;20087;-62
2022/06/08 00:57:22;;;;;;;3.50;3.20;;;11.50;99.90;;;;;;4934957;29;20063;-62
2022/06/08 00:59:55;;;;;;;3.83;3.42;;;11.40;99.90;;;;;;4939224;28;20035;-62
2022/06/08 01:02:21;;;;;;;4.05;3.65;;;11.30;99.90;;;;;;4939731;28;20034;-62
2022/06/08 01:04:47;;;;;;;4.22;3.83;;;11.30;99.90;;;;;;4939406;28;20036;-62
2022/06/08 01:07:19;;;;;;;4.63;4.28;;;11.30;99.90;;;;;;4940813;28;20059;-62
2022/06/08 01:09:46;;;;;;;3.67;3.47;;;11.20;99.90;;;;;;4939974;29;20710;-62
2022/06/08 01:12:20;;;;;;;3.95;3.65;;;11.20;99.90;;;;;;4941631;28;20036;-62
2022/06/08 01:14:47;;;;;;;5.70;3.95;;;11.20;99.90;;;;;;4940622;28;20027;-62
2022/06/08 01:17:16;;;;;;;5.45;4.05;;;11.20;99.90;;;;;;4936940;29;20024;-62
2022/06/08 01:19:44;;;;;;;5.70;4.40;;;11.20;99.90;;;;;;4938162;28;20090;-62
2022/06/08 01:22:13;;;;;;;5.03;4.53;;;11.20;99.90;;;;;;4941696;28;20115;-62
2022/06/08 01:24:40;;;;;;;4.78;4.35;;;11.20;99.90;;;;;;4939989;28;20035;-62
2022/06/08 01:27:35;;;;;;;4.47;4.18;;;11.30;99.90;;;;;;4941725;29;20031;-62
2022/06/08 01:30:19;;;;;;;4.40;4.00;;;11.30;99.90;;;;;;4939183;29;20110;-63
2022/06/08 01:33:14;;;;;;;4.13;3.83;;;11.30;99.90;;;;;;4938389;28;20042;-62
2022/06/08 01:35:42;;;;;;;16.73;4.18;;;11.30;99.90;;;;;;4940375;29;20031;-62
2022/06/08 01:38:14;;;;;;;6.03;3.60;;;11.30;99.90;;;;;;4942214;28;20031;-62
2022/06/08 01:41:18;;;;;;;3.38;3.08;;;11.30;99.90;;;;;;4934524;29;20075;-62
2022/06/08 01:44:02;;;;;;;3.58;3.28;;;11.30;99.90;;;;;;4856228;29;20026;-62
2022/06/08 01:46:34;;;;;;;4.00;3.70;;;11.20;99.90;;;;;;4930885;28;20543;-62
2022/06/08 01:49:09;;;;;;;5.78;4.28;;;11.20;99.90;;;;;;4939089;29;20019;-62
2022/06/08 01:52:00;;;;;;;6.00;4.00;;;11.30;99.90;;;;;;4931247;29;20110;-62
2022/06/08 01:54:38;;;;;;;3.85;3.60;;;11.30;99.90;;;;;;4924292;29;20027;-63
2022/06/08 01:57:06;;;;;;;3.80;3.45;;;11.30;99.90;;;;;;4920761;29;20028;-62
2022/06/08 01:59:50;;;;;;;3.78;3.47;;;11.30;99.90;;;;;;4938310;29;20027;-62
2022/06/08 02:02:46;;;;;;;4.03;3.72;;;11.40;99.90;;;;;;4940808;28;20030;-62
2022/06/08 02:05:30;;;;;;;3.70;3.40;;;11.30;99.90;;;;;;4921989;28;20038;-62
2022/06/08 02:08:12;;;;;;;4.63;4.25;;;11.30;99.90;;;;;;4938392;29;20032;-62
2022/06/08 02:10:46;;;;;;;4.00;3.63;;;11.30;99.90;;;;;;4940385;28;20032;-62
2022/06/08 02:13:14;;;;;;;3.92;3.45;;;11.20;99.90;;;;;;4940963;29;20116;-62
2022/06/08 02:15:45;;;;;;;4.18;3.78;;;11.10;99.90;;;;;;4941524;29;20031;-62
2022/06/08 02:18:21;;;;;;;5.85;3.70;;;11.10;99.90;;;;;;4939301;28;20110;-62
2022/06/08 02:20:57;;;;;;;4.97;4.03;;;11.20;99.90;;;;;;4939037;28;20498;-62
2022/06/08 02:23:35;;;;;;;5.28;4.30;;;11.20;99.90;;;;;;4938293;29;20048;-62
2022/06/08 02:26:07;;;;;;;4.60;4.20;;;11.20;99.90;;;;;;4938162;28;20027;-62
2022/06/08 02:28:37;;;;;;;4.45;3.97;;;11.20;99.90;;;;;;4938915;28;20043;-62
2022/06/08 02:31:21;;;;;;;3.70;3.40;;;11.20;99.90;;;;;;4933839;28;20079;-58
2022/06/08 02:36:43;;;;;;;3.22;3.00;;;11.10;99.90;;;;;;4914115;29;20398;-60
2022/06/08 02:39:14;;;;;;;4.07;3.83;;;11.00;99.90;;;;;;4943949;28;20106;-60
2022/06/08 02:41:42;;;;;;;4.93;3.83;;;10.90;99.90;;;;;;4935413;29;20035;-61
2022/06/08 02:44:14;;;;;;;4.53;3.70;;;10.80;99.90;;;;;;4939011;28;20122;-63
2022/06/08 02:46:40;;;;;;;4.50;4.10;;;10.80;99.90;;;;;;4939331;29;20058;-60
2022/06/08 02:49:07;;;;;;;4.30;4.00;;;10.80;99.90;;;;;;4932933;28;20049;-62
2022/06/08 02:51:33;;;;;;;3.63;3.42;;;10.80;99.90;;;;;;4940262;28;20030;-60
2022/06/08 02:54:03;;;;;;;5.00;4.60;;;10.80;99.90;;;;;;4938799;29;20074;-60
2022/06/08 02:56:38;;;;;;;5.00;4.50;;;10.90;99.90;;;;;;4934876;28;20130;-60
2022/06/08 02:59:29;;;;;;;5.70;4.82;;;11.00;99.90;;;;;;4942327;28;20035;-60
2022/06/08 03:02:09;;;;;;;4.03;3.65;;;11.00;99.90;;;;;;4898826;28;20506;-60
2022/06/08 03:04:46;;;;;;;4.10;3.80;;;11.00;99.90;;;;;;4940068;28;20090;-60
2022/06/08 03:07:17;;;;;;;4.25;3.95;;;11.10;99.90;;;;;;4942569;28;20114;-59
2022/06/08 03:09:45;;;;;;;5.25;4.47;;;11.10;99.90;;;;;;4945651;29;20222;-60
2022/06/08 03:12:19;;;;;;;4.35;4.00;;;11.20;99.90;;;;;;4945267;28;20020;-60
2022/06/08 03:14:47;;;;;;;5.95;4.05;;;11.20;99.90;;;;;;4943315;28;20032;-60
2022/06/08 03:17:16;;;;;;;5.40;4.22;;;11.20;99.90;;;;;;4942898;28;20110;-62
2022/06/08 03:19:42;;;;;;;4.60;3.33;;;11.30;99.90;;;;;;4940763;28;20055;-62
2022/06/08 03:22:07;;;;;;;4.55;4.15;;;11.30;99.90;;;;;;4944522;29;20055;-62
2022/06/08 03:24:34;;;;;;;3.88;3.58;;;11.30;99.90;;;;;;4924501;29;20052;-62
2022/06/08 03:27:04;;;;;;;3.55;3.25;;;11.40;99.90;;;;;;4939496;29;20087;-61
2022/06/08 03:29:31;;;;;;;3.70;3.50;;;11.40;99.90;;;;;;4941471;28;20533;-62
2022/06/08 03:31:57;;;;;;;4.53;4.13;;;11.40;99.90;;;;;;4940779;28;20036;-62
2022/06/08 03:34:23;;;;;;;4.60;4.20;;;11.40;99.90;;;;;;4942429;28;20071;-62
2022/06/08 03:36:49;;;;;;;5.22;4.30;;;11.50;99.90;;;;;;4942317;28;20454;-62
2022/06/08 03:39:15;;;;;;;4.75;4.35;;;11.50;99.90;;;;;;4943756;28;20054;-62
2022/06/08 03:41:44;;;;;;;6.82;4.30;;;11.50;99.90;;;;;;4939446;28;20042;-62
2022/06/08 03:44:09;;;;;;;4.13;3.72;;;11.60;99.90;;;;;;4942073;28;20024;-62
2022/06/08 03:46:40;;;;;;;4.80;4.40;;;11.60;99.90;;;;;;4943202;28;20450;-63
2022/06/08 03:49:08;;;;;;;5.60;4.40;;;11.60;99.90;;;;;;4940569;29;20026;-63
2022/06/08 03:51:37;;;;;;;4.97;4.57;;;11.60;99.90;;;;;;4942974;28;20052;-63
2022/06/08 03:54:17;;;;;;;5.13;4.60;;;11.60;99.90;;;;;;4941899;29;20027;-62
2022/06/08 03:56:47;;;;;;;7.22;4.18;;;11.60;99.90;;;;;;4941169;28;20062;-62
2022/06/08 03:59:13;;;;;;;5.43;4.93;;;11.70;99.90;;;;;;4938031;28;20032;-62
2022/06/08 04:01:39;;;;;;;4.85;4.20;;;11.80;99.90;;;;;;4940320;28;20504;-62
2022/06/08 04:04:05;;;;;;;4.13;3.83;;;11.90;99.90;;;;;;4945356;29;20030;-63
2022/06/08 04:06:31;;;;;;;4.45;4.15;;;12.10;99.90;;;;;;4942045;28;20020;-63
2022/06/08 04:08:57;;;;;;;4.25;3.78;;;12.30;99.90;;;;;;4944738;28;20767;-61
2022/06/08 04:11:22;;;;;;;3.60;3.30;;;12.40;99.90;;;;;;4924203;28;20122;-62
2022/06/08 04:13:48;;;;;;;5.22;4.00;;;12.50;99.90;;;;;;4932204;28;20386;-62
2022/06/08 04:16:15;;;;;;;4.70;3.50;;;12.70;99.90;;;;;;4939366;28;21011;-62
2022/06/08 04:18:41;;;;;;;6.82;3.30;;;12.80;99.90;;;;;;4941554;28;20028;-62
2022/06/08 04:21:09;;;;;;;5.97;3.15;;;12.90;99.90;;;;;;4941172;28;20075;-62
2022/06/08 04:23:37;;;;;;;4.38;3.53;;;13.10;99.90;;;;;;4941279;29;20040;-62
2022/06/08 04:26:04;;;;;;;3.85;2.80;;;13.30;99.90;;;;;;4940013;28;20042;-62
2022/06/08 04:28:30;;;;;;;3.40;3.15;;;13.40;99.90;;;;;;4940692;28;20039;-63
2022/06/08 04:30:56;;;;;;;3.35;3.00;;;13.60;99.90;;;;;;4940065;28;20031;-62
2022/06/08 04:33:22;;;;;;;3.60;2.28;;;13.70;99.90;;;;;;4942816;28;20024;-62
2022/06/08 04:35:48;;;;;;;3.53;2.63;;;13.80;99.90;;;;;;4941921;28;20530;-62
2022/06/08 04:38:16;;;;;;;3.20;3.00;;;14.00;99.90;;;;;;4942866;28;20034;-62
2022/06/08 04:40:42;;;;;;;2.60;2.40;;;14.10;99.90;;;;;;4946373;28;20027;-60
2022/06/08 04:43:08;;;;;;;2.83;2.63;;;14.20;99.90;;;;;;4938563;28;20028;-60
2022/06/08 04:45:35;;;;;;;3.95;2.70;;;14.20;99.90;;;;;;4944085;29;20028;-60
2022/06/08 04:48:02;;;;;;;3.72;2.60;;;14.30;99.90;;;;;;4945500;28;20394;-60
2022/06/08 04:50:28;;;;;;;3.03;2.72;;;14.30;99.90;;;;;;4939220;28;20039;-61
2022/06/08 04:52:53;;;;;;;3.67;2.78;;;14.40;99.90;;;;;;4941209;28;20028;-61
2022/06/08 04:55:20;;;;;;;7.00;2.63;;;14.40;99.90;;;;;;4937399;28;20118;-60
2022/06/08 04:57:45;;;;;;;2.80;2.60;;;14.50;99.90;;;;;;4924153;29;20030;-61
2022/06/08 05:00:17;;;;;;;2.65;2.45;;;14.60;99.90;;;;;;4941682;28;20032;-60
2022/06/08 05:02:48;;;;;;;4.07;2.15;;;14.90;99.90;;;;;;4940202;28;20042;-60
2022/06/08 05:05:15;;;;;;;;;;;15.10;99.90;;;;;;4941388;28;20034;-60
2022/06/08 05:07:41;;;;;;;3.38;2.60;;;15.20;99.90;;;;;;4940469;28;19917;-61
2022/06/08 05:10:08;;;;;;;2.55;2.35;;;15.30;99.90;;;;;;4939472;28;20424;-61
2022/06/08 05:12:36;;;;;;;2.53;2.35;;;15.40;99.90;;;;;;4936256;28;20024;-61
2022/06/08 05:15:06;;;;;;;2.28;2.08;;;15.40;99.90;;;;;;4926228;29;20042;-61
2022/06/08 05:17:32;;;;;;;2.80;2.40;;;15.40;99.90;;;;;;4939533;28;20731;-61
2022/06/08 05:19:58;;;;;;;2.95;2.70;;;15.50;99.90;;;;;;4939156;28;20046;-61
2022/06/08 05:22:24;;;;;;;1.98;1.88;;;15.60;99.90;;;;;;4941639;28;20032;-61
2022/06/08 05:24:49;;;;;;;2.17;1.98;;;15.70;99.90;;;;;;4942450;28;20035;-60
2022/06/08 05:27:15;;;;;;;2.35;2.15;;;15.90;99.90;;;;;;4938863;29;20040;-61
2022/06/08 05:29:41;;;;;;;1.95;1.85;;;16.10;99.90;;;;;;4944012;29;20035;-61
2022/06/08 05:32:07;;;;;;;2.50;2.05;;;16.40;99.90;;;;;;4942438;29;20036;-60
2022/06/08 05:34:32;;;;;;;2.15;1.95;;;16.80;99.90;;;;;;4941043;28;20032;-61
2022/06/08 05:36:58;;;;;;;2.85;1.80;;;17.30;99.90;;;;;;4942356;28;20086;-61
2022/06/08 05:39:23;;;;;;;4.20;1.70;;;18.20;99.90;;;;;;4942855;29;20071;-61
2022/06/08 05:41:49;;;;;;;1.80;1.60;;;19.40;99.90;;;;;;4937625;29;20119;-61
2022/06/08 05:44:15;;;;;;;2.55;1.33;;;20.60;99.90;;;;;;4941584;29;20094;-62
2022/06/08 05:46:41;;;;;;;1.60;1.50;;;21.60;99.90;;;;;;4931548;29;20383;-61
2022/06/08 05:49:06;;;;;;;1.40;1.30;;;22.60;99.90;;;;;;4942855;29;20019;-61
2022/06/08 05:51:32;;;;;;;1.40;1.30;;;23.20;98.40;;;;;;4939574;29;20840;-62
2022/06/08 05:53:58;;;;;;;1.33;1.00;;;23.80;96.40;;;;;;4941822;29;20499;-63
2022/06/08 05:56:24;;;;;;;1.05;1.00;;;24.80;90.40;;;;;;4939111;28;20047;-62
2022/06/08 05:58:49;;;;;;;2.40;1.38;;;25.20;83.00;;;;;;4941449;28;20062;-62
2022/06/08 06:01:15;;;;;;;1.17;1.08;;;25.20;80.30;;;;;;4939802;29;20032;-62
2022/06/08 06:03:41;;;;;;;1.88;1.10;;;25.40;80.50;;;;;;4937811;29;20057;-62
2022/06/08 06:06:06;;;;;;;3.33;1.15;;;25.70;75.00;;;;;;4939409;28;20035;-62
2022/06/08 06:08:32;;;;;;;1.38;1.17;;;25.40;75.60;;;;;;4939626;28;20028;-62
2022/06/08 06:10:58;;;;;;;1.98;1.23;;;25.30;76.10;;;;;;4916274;29;20091;-62
2022/06/08 06:13:23;;;;;;;1.10;1.00;;;25.10;77.50;;;;;;4941108;28;20034;-61
2022/06/08 06:15:49;;;;;;;5.50;1.42;;;25.00;79.20;;;;;;4940828;28;20142;-61
2022/06/08 06:18:16;;;;;;;1.73;1.05;;;25.20;82.90;;;;;;4940023;29;20044;-62
2022/06/08 06:20:42;;;;;;;2.78;1.10;;;26.00;76.40;;;;;;4934736;28;20098;-62
2022/06/08 06:23:07;;;;;;;2.17;1.00;;;27.60;69.80;;;;;;4937971;28;20030;-63
2022/06/08 06:25:33;;;;;;;1.40;1.20;;;28.80;65.70;;;;;;4941474;29;20031;-63
2022/06/08 06:27:59;;;;;;;1.30;0.95;;;29.70;61.20;;;;;;4940596;29;20019;-63
2022/06/08 06:30:25;;;;;;;1.75;0.80;;;30.80;58.90;;;;;;4939598;28;20023;-64
2022/06/08 06:32:50;;;;;;;1.58;0.90;;;32.30;56.00;;;;;;4940745;28;20036;-63
2022/06/08 06:35:24;;;;;;;1.45;0.80;;;33.20;52.00;;;;;;4928548;29;20131;-64
2022/06/08 06:37:50;;;;;;;1.15;0.90;;;33.00;50.90;;;;;;4939774;28;20042;-63
2022/06/08 06:40:16;;;;;;;2.25;1.00;;;32.40;52.10;;;;;;4939812;29;20024;-63
2022/06/08 06:42:43;;;;;;;1.25;0.70;;;31.70;52.00;;;;;;4944749;29;20032;-62
2022/06/08 06:45:09;;;;;;;1.20;0.80;;;30.70;54.80;;;;;;4944363;29;20044;-62
2022/06/08 06:47:35;;;;;;;1.55;0.80;;;30.30;54.90;;;;;;4942966;28;20030;-62
2022/06/08 06:50:02;;;;;;;1.40;0.90;;;29.70;56.70;;;;;;4928117;29;20040;-62
2022/06/08 06:52:27;;;;;;;1.45;1.10;;;29.60;56.20;;;;;;4940541;28;20079;-63
2022/06/08 06:54:53;;;;;;;1.02;0.80;;;29.40;56.30;;;;;;4945350;28;20031;-62
2022/06/08 06:57:19;;;;;;;2.97;0.93;;;29.50;56.20;;;;;;4946229;29;20027;-62
2022/06/08 06:59:45;;;;;;;1.80;1.15;;;28.90;57.60;;;;;;4939969;28;20404;-62
2022/06/08 07:02:13;;;;;;;1.85;0.90;;;28.30;58.50;;;;;;4942964;28;20028;-63
2022/06/08 07:04:39;;;;;;;2.25;0.90;;;28.30;58.10;;;;;;4940197;28;20031;-63
2022/06/08 07:07:05;;;;;;;1.85;1.00;;;28.80;58.30;;;;;;4943058;29;20056;-62
2022/06/08 07:09:31;;;;;;;0.98;0.80;;;29.70;56.80;;;;;;4944054;28;20015;-63
2022/06/08 07:11:56;;;;;;;0.90;0.80;;;30.80;56.10;;;;;;4941432;28;20024;-62
2022/06/08 07:14:22;;;;;;;1.75;0.73;;;31.30;53.60;;;;;;4944279;29;20027;-63
2022/06/08 07:16:49;;;;;;;3.10;1.00;;;32.00;53.00;;;;;;4928220;29;20039;-62
2022/06/08 07:19:15;;;;;;;2.08;1.00;;;32.10;52.40;;;;;;4942448;28;20110;-63
2022/06/08 07:21:41;;;;;;;1.77;1.55;;;32.20;52.20;;;;;;4948026;29;20032;-63
2022/06/08 07:24:08;;;;;;;2.95;0.95;;;31.50;51.40;;;;;;4936307;28;20403;-63
2022/06/08 07:26:34;;;;;;;2.60;1.00;;;31.00;52.70;;;;;;4944191;29;20028;-63
2022/06/08 07:29:00;;;;;;;3.05;0.93;;;30.20;54.40;;;;;;4943533;28;20066;-63
2022/06/08 07:31:27;;;;;;;2.38;1.10;;;30.10;55.10;;;;;;4942626;29;20460;-62
2022/06/08 07:33:53;;;;;;;2.28;1.00;;;30.30;56.30;;;;;;4942077;29;20030;-62
2022/06/08 07:36:20;;;;;;;2.10;0.88;;;30.90;54.20;;;;;;4941359;29;20490;-62
2022/06/08 07:38:46;;;;;;;2.28;0.98;;;31.10;53.00;;;;;;4939705;28;20090;-63
2022/06/08 07:41:12;;;;;;;1.45;0.80;;;31.30;53.60;;;;;;4941792;28;20028;-62
2022/06/08 07:43:38;;;;;;;2.70;1.13;;;31.90;51.80;;;;;;4940380;28;20038;-62
2022/06/08 07:46:05;;;;;;;2.72;0.98;;;32.30;50.60;;;;;;4937764;28;20019;-63
2022/06/08 07:51:16;;;;;;;1.65;0.98;;;32.40;50.30;;;;;;4940770;28;20050;-63
2022/06/08 07:53:42;;;;;;;1.75;0.82;;;32.80;51.50;;;;;;4939807;29;20065;-64
2022/06/08 07:56:08;;;;;;;3.42;0.90;;;33.70;49.40;;;;;;4942471;28;20036;-63
2022/06/08 07:58:33;;;;;;;1.75;0.80;;;34.30;48.60;;;;;;4942394;29;20110;-63
2022/06/08 08:00:59;;;;;;;2.95;0.70;;;35.00;49.70;;;;;;4939933;28;20107;-63
2022/06/08 08:03:25;;;;;;;2.05;0.70;;;35.50;48.40;;;;;;4936584;28;20447;-63
2022/06/08 08:05:51;;;;;;;1.13;0.70;;;35.40;45.10;;;;;;4937795;28;20042;-63
2022/06/08 08:08:19;;;;;;;2.20;0.80;;;32.90;45.70;;;;;;4942465;28;20372;-63
2022/06/08 08:10:45;;;;;;;1.92;0.60;;;31.60;49.40;;;;;;4942255;28;20038;-63
2022/06/08 08:13:12;;;;;;;0.95;0.70;;;30.30;52.50;;;;;;4944769;28;20411;-62
2022/06/08 08:15:39;;;;;;;3.60;0.95;;;29.40;54.80;;;;;;4915904;28;20039;-63
2022/06/08 08:18:05;;;;;;;1.63;0.90;;;28.60;56.90;;;;;;4934567;29;20387;-62
2022/06/08 08:20:32;;;;;;;2.05;0.98;;;28.00;57.30;;;;;;4938445;28;20035;-61
2022/06/08 08:22:58;;;;;;;2.85;0.98;;;27.30;59.20;;;;;;4940256;28;20036;-62
2022/06/08 08:25:25;;;;;;;1.40;0.70;;;27.10;60.90;;;;;;4938382;28;20028;-62
2022/06/08 08:27:52;;;;;;;1.67;1.08;;;27.30;59.20;;;;;;4939600;29;20070;-62
2022/06/08 08:30:22;;;;;;;1.58;0.80;;;28.00;59.60;;;;;;4941577;28;20028;-62
2022/06/08 08:32:48;;;;;;;4.18;1.02;;;29.00;57.90;;;;;;4937756;28;20178;-63
2022/06/08 08:35:16;;;;;;;2.50;0.90;;;29.30;55.10;;;;;;4946488;28;20546;-62
2022/06/08 08:37:43;;;;;;;1.77;0.82;;;29.60;57.20;;;;;;4940257;28;20024;-64
2022/06/08 08:40:25;;;;;;;1.58;0.90;;;30.10;54.40;;;;;;4939659;28;20019;-62
2022/06/08 08:42:51;;;;;;;1.85;0.85;;;29.60;53.70;;;;;;4937801;28;20027;-63
2022/06/08 08:45:20;;;;;;;4.38;0.90;;;29.30;54.40;;;;;;4942308;28;20077;-62
2022/06/08 08:47:51;;;;;;;2.20;0.90;;;29.00;54.70;;;;;;4937024;28;20091;-62
2022/06/08 08:50:23;;;;;;;1.13;0.70;;;28.60;56.70;;;;;;4937906;28;20039;-62
2022/06/08 08:52:49;;;;;;;2.15;0.70;;;28.50;58.00;;;;;;4941521;28;20494;-62
2022/06/08 08:55:32;;;;;;;1.52;0.70;;;28.50;58.00;;;;;;4939637;28;20039;-62
2022/06/08 08:58:04;;;;;;;2.88;0.77;;;28.30;54.00;;;;;;4923625;29;20036;-62
2022/06/08 09:00:39;;;;;;;2.20;0.70;;;28.20;52.20;;;;;;4942403;29;20122;-62
2022/06/08 09:03:40;;;;;;;1.52;0.80;;;28.50;54.20;;;;;;4943211;28;20122;-62
2022/06/08 09:06:13;;;;;;;2.10;0.80;;;29.20;55.80;;;;;;4937430;29;20490;-62
2022/06/08 09:08:44;;;;;;;2.30;0.63;;;29.80;49.60;;;;;;4939869;28;20047;-62
2022/06/08 09:11:18;;;;;;;1.48;0.65;;;29.80;51.40;;;;;;4941683;28;20442;-62
2022/06/08 09:13:51;;;;;;;1.67;0.70;;;30.70;51.00;;;;;;4927367;29;20486;-63
2022/06/08 09:16:40;;;;;;;0.73;0.47;;;31.50;48.90;;;;;;4938488;28;20065;-63
2022/06/08 09:19:21;;;;;;;1.25;0.50;;;31.60;47.20;;;;;;4938484;28;20034;-62
2022/06/08 09:22:14;;;;;;;1.17;0.52;;;32.40;48.50;;;;;;4940560;28;20016;-62
2022/06/08 09:24:45;;;;;;;1.02;0.50;;;33.10;44.80;;;;;;4933129;28;20047;-63
2022/06/08 09:27:26;;;;;;;1.50;0.50;;;33.70;42.30;;;;;;4940703;28;20046;-63
2022/06/08 09:30:02;;;;;;;;;;;33.50;44.10;;;;;;4938727;28;20081;-63
2022/06/08 09:32:49;;;;;;;1.13;0.50;;;34.80;41.20;;;;;;4942267;28;20054;-63
2022/06/08 09:35:23;;;;;;;0.65;0.30;;;35.80;40.80;;;;;;4939635;28;20039;-63
2022/06/08 09:37:52;;;;;;;1.58;0.50;;;36.60;38.40;;;;;;4942286;28;20039;-63
2022/06/08 09:43:19;;;;;;;1.17;0.47;;;38.70;35.40;;;;;;5471886;23;20487;-95
2022/06/08 09:46:08;;;;;;;2.60;0.60;;;38.40;36.50;;;;;;4976378;28;20042;-95
2022/06/08 09:51:46;;;;;;;2.20;0.80;;;37.10;35.50;;;;;;4969531;28;20076;-95
2022/06/08 09:54:48;;;;;;;1.13;0.50;;;36.90;35.60;;;;;;4947220;28;20063;-94
2022/06/08 09:57:21;;;;;;;0.73;0.40;;;36.30;36.00;;;;;;4946601;29;20052;-96
2022/06/08 09:59:47;;;;;;;1.17;0.45;;;35.60;37.60;;;;;;4940807;29;20032;-92
2022/06/08 10:02:31;;;;;;;1.42;0.40;;;34.70;36.90;;;;;;4929038;29;20024;-94
2022/06/08 10:05:24;;;;;;;3.53;0.52;;;34.00;37.30;;;;;;4927647;29;20035;-94
2022/06/08 10:08:08;;;;;;;1.13;0.40;;;33.30;38.20;;;;;;4944162;29;20396;-95
2022/06/08 10:10:53;;;;;;;1.90;0.50;;;32.20;41.00;;;;;;4932143;29;20040;-94
2022/06/08 10:13:49;;;;;;;0.68;0.40;;;31.40;43.00;;;;;;4937359;29;20031;-95
2022/06/08 10:16:23;;;;;;;0.75;0.40;;;29.90;43.90;;;;;;4905347;29;20047;-94
2022/06/08 10:18:56;;;;;;;1.00;0.50;;;28.80;47.00;;;;;;4906062;29;20032;-93
2022/06/08 10:21:26;;;;;;;2.40;0.60;;;27.70;48.10;;;;;;4919454;29;20063;-95
2022/06/08 10:24:24;;;;;;;1.38;0.60;;;27.50;48.10;;;;;;4927973;29;20056;-96
2022/06/08 10:27:12;;;;;;;1.52;0.63;;;27.50;47.80;;;;;;4939486;29;20111;-96
2022/06/08 10:29:49;;;;;;;2.20;0.60;;;28.00;48.20;;;;;;4928018;29;20036;-96
2022/06/08 10:32:38;;;;;;;0.85;0.60;;;28.30;49.70;;;;;;4922316;29;20024;-94
2022/06/08 10:35:27;;;;;;;0.75;0.50;;;27.30;48.00;;;;;;4918599;29;20117;-95
2022/06/08 10:37:53;;;;;;;1.10;0.40;;;27.10;51.60;;;;;;4915211;29;20043;-93
2022/06/08 10:40:23;;;;;;;2.35;0.60;;;27.70;48.90;;;;;;4938403;29;20089;-94
2022/06/08 10:42:51;;;;;;;2.25;0.70;;;28.20;49.20;;;;;;4931372;29;20039;-94
2022/06/08 10:45:23;;;;;;;1.27;0.70;;;28.80;49.20;;;;;;4938910;29;20036;-95
2022/06/08 10:48:13;;;;;;;2.53;0.60;;;29.90;47.30;;;;;;4927561;29;20036;-94
2022/06/08 10:51:19;;;;;;;1.95;0.60;;;30.60;44.30;;;;;;4947265;29;20016;-94
2022/06/08 10:56:35;;;;;;;1.02;0.55;;;31.30;42.50;;;;;;4934063;29;20136;-93
2022/06/08 10:59:07;;;;;;;2.13;0.75;;;30.60;41.90;;;;;;4936900;29;20111;-94
2022/06/08 11:01:36;;;;;;;1.30;0.50;;;30.50;43.50;;;;;;4910075;29;20040;-93
2022/06/08 11:04:05;;;;;;;0.98;0.50;;;30.50;43.20;;;;;;4920163;29;20111;-93
2022/06/08 11:06:46;;;;;;;1.17;0.50;;;30.10;43.00;;;;;;4932694;29;20472;-93
2022/06/08 11:09:33;;;;;;;1.00;0.40;;;29.80;45.00;;;;;;4954455;29;20028;-93
2022/06/08 11:12:11;;;;;;;2.88;0.50;;;29.80;43.60;;;;;;4925294;29;20503;-94
2022/06/08 11:14:43;;;;;;;1.75;0.60;;;29.70;42.50;;;;;;4913290;29;20039;-93
2022/06/08 11:17:30;;;;;;;4.68;0.50;;;29.50;42.80;;;;;;4908599;29;20048;-92
2022/06/08 11:20:12;;;;;;;2.92;0.43;;;29.50;43.30;;;;;;4922205;29;20036;-93
2022/06/08 11:22:57;;;;;;;0.73;0.50;;;29.60;43.80;;;;;;4921459;29;20036;-91
2022/06/08 11:25:33;;;;;;;0.95;0.40;;;29.90;44.30;;;;;;4935492;29;20084;-94
2022/06/08 11:28:28;;;;;;;3.05;0.68;;;30.30;43.60;;;;;;4917316;29;20086;-91
2022/06/08 11:30:56;;;;;;;1.70;0.50;;;30.90;43.40;;;;;;4887505;28;20032;-94
2022/06/08 11:33:22;;;;;;;1.27;0.60;;;31.20;43.40;;;;;;4916073;29;20019;-93
2022/06/08 11:36:00;;;;;;;0.88;0.50;;;31.00;39.90;;;;;;4934503;29;20063;-92
2022/06/08 11:38:36;;;;;;;1.15;0.57;;;30.90;40.20;;;;;;4927232;29;20099;-94
2022/06/08 11:41:23;;;;;;;1.65;0.50;;;31.00;41.80;;;;;;4931050;29;20035;-95
2022/06/08 11:43:49;;;;;;;2.63;0.88;;;31.40;43.50;;;;;;4932553;29;20047;-94
2022/06/08 11:46:33;;;;;;;2.78;0.50;;;31.70;42.90;;;;;;4917979;29;20119;-94
2022/06/08 11:48:59;;;;;;;2.95;1.00;;;31.90;42.10;;;;;;4923470;29;20487;-92
2022/06/08 11:51:29;;;;;;;1.70;0.57;;;31.40;41.20;;;;;;4920846;29;20047;-93
2022/06/08 11:53:56;;;;;;;1.90;0.77;;;31.00;44.30;;;;;;4941180;29;20032;-93
2022/06/08 11:56:22;;;;;;;3.65;0.75;;;31.00;43.50;;;;;;4912821;29;20035;-94
2022/06/08 11:58:53;;;;;;;1.45;0.70;;;30.40;44.20;;;;;;4931819;29;20038;-94
2022/06/08 12:01:23;;;;;;;2.03;0.60;;;30.40;46.60;;;;;;4935536;29;20032;-93
2022/06/08 12:03:56;;;;;;;1.63;0.80;;;30.50;47.00;;;;;;4938612;29;20031;-93
2022/06/08 12:06:34;;;;;;;1.80;0.73;;;30.00;44.90;;;;;;4931317;29;20039;-93
2022/06/08 12:09:02;;;;;;;1.05;0.70;;;29.80;46.90;;;;;;4927269;29;20376;-92
2022/06/08 12:11:30;;;;;;;2.08;0.68;;;30.30;45.20;;;;;;4940936;29;20032;-92
2022/06/08 12:14:03;;;;;;;0.82;0.60;;;30.70;43.70;;;;;;4933246;29;20111;-93
2022/06/08 12:16:37;;;;;;;1.10;0.65;;;30.80;43.80;;;;;;4927306;29;20146;-93
2022/06/08 12:19:13;;;;;;;2.08;0.50;;;31.00;43.90;;;;;;4924965;29;20028;-94
2022/06/08 12:21:42;;;;;;;2.38;0.43;;;31.00;45.40;;;;;;4912367;29;20035;-93
2022/06/08 12:24:11;;;;;;;1.73;1.05;;;31.00;44.70;;;;;;4914282;29;20036;-92
2022/06/08 12:26:59;;;;;;;2.35;0.70;;;30.10;43.30;;;;;;4925812;29;20064;-94
2022/06/08 12:29:30;;;;;;;1.75;0.60;;;28.40;46.70;;;;;;4914659;29;20032;-93
2022/06/08 12:32:01;;;;;;;1.95;0.80;;;27.10;48.40;;;;;;4912455;29;20031;-94
2022/06/08 12:35:05;;;;;;;1.23;0.50;;;26.30;50.70;;;;;;4913752;29;20032;-92
2022/06/08 12:37:44;;;;;;;1.90;0.80;;;26.50;53.30;;;;;;4924864;29;20763;-91
2022/06/08 12:40:15;;;;;;;3.95;0.70;;;27.40;50.70;;;;;;4933225;29;20036;-92
2022/06/08 12:43:08;;;;;;;0.88;0.60;;;28.30;49.50;;;;;;4935191;29;20480;-93
2022/06/08 12:45:35;;;;;;;2.45;0.73;;;28.30;46.10;;;;;;4920810;29;20133;-95
2022/06/08 12:48:21;;;;;;;2.13;0.63;;;28.70;47.70;;;;;;4932945;29;21055;-93
2022/06/08 12:50:47;;;;;;;0.90;0.70;;;29.00;46.90;;;;;;4918021;29;20496;-93
2022/06/08 12:53:13;;;;;;;1.70;0.65;;;28.80;46.50;;;;;;4933289;29;20027;-92
2022/06/08 12:55:40;;;;;;;2.15;0.55;;;27.80;47.20;;;;;;4919806;29;20070;-92
2022/06/08 12:58:12;;;;;;;1.10;0.57;;;27.90;49.00;;;;;;4938935;29;20563;-92
2022/06/08 13:00:54;;;;;;;1.83;0.70;;;27.70;47.60;;;;;;4930392;29;20039;-93
2022/06/08 13:03:27;;;;;;;1.42;0.63;;;27.80;47.90;;;;;;4950429;29;20130;-92
2022/06/08 13:05:55;;;;;;;1.38;0.57;;;28.00;47.30;;;;;;4923546;29;20076;-94
2022/06/08 13:08:27;;;;;;;0.80;0.60;;;28.20;49.70;;;;;;4921369;29;20495;-95
2022/06/08 13:10:55;;;;;;;1.92;0.80;;;28.20;47.70;;;;;;4942094;29;20039;-94
2022/06/08 13:13:25;;;;;;;1.65;0.60;;;28.10;46.60;;;;;;4931939;29;20519;-94
2022/06/08 13:15:51;;;;;;;1.77;0.73;;;28.00;49.50;;;;;;4906270;29;20060;-94
2022/06/08 13:18:23;;;;;;;2.15;0.75;;;28.30;49.10;;;;;;4920838;29;20020;-93
2022/06/08 13:20:51;;;;;;;2.92;0.98;;;28.80;48.10;;;;;;4893225;29;20119;-93
2022/06/08 13:23:17;;;;;;;2.22;0.82;;;29.30;46.90;;;;;;4921996;29;20099;-94